Terminal Aerodrome Forecast
Issued by NWS

Home | Current Version | Previous Version | Text Only | Print | Product List | Glossary On
Versions: 1 2 3 4 5 6 7 8 9 10 11 12 13 14 15 16 17 18 19 20 21 22 23 24 25 26 27 28 29 30 31 32
000
FTAK31 PAFA 241123
TAFAOM
TAF
PAOM 241123Z 2412/2512 03004KT P6SM VCSH FEW070 BKN100 OVC140
     FM241600 01007KT 5SM -SN BR BKN040 OVC080
     FM242200 02007KT 4SM -SN BR BKN025 OVC040=

USA.gov is the U.S. government's official web portal to all federal, state and local government web resources and services.